createdAt,value
2023-05-22T00:01:56.924Z,80.56543
2023-05-22T00:06:56.877Z,80.49414
2023-05-22T00:11:57.234Z,80.42578
2023-05-22T00:16:58.481Z,80.64453
2023-05-22T00:21:56.893Z,80.88867
2023-05-22T00:26:56.850Z,80.73242
2023-05-22T00:31:56.849Z,80.72266
2023-05-22T00:36:56.894Z,80.36523
2023-05-22T00:41:56.912Z,80.14453
2023-05-22T00:46:57.168Z,80.06348
2023-05-22T00:51:56.974Z,79.69629
2023-05-22T00:56:57.126Z,79.49707
2023-05-22T01:01:57.084Z,79.41016
2023-05-22T01:06:57.046Z,79.31543
2023-05-22T01:12:02.284Z,78.94434
2023-05-22T01:17:01.988Z,79.02441
2023-05-22T01:22:03.735Z,78.85059
2023-05-22T01:27:06.590Z,78.83105
2023-05-22T01:31:59.350Z,78.4209
2023-05-22T01:36:57.107Z,77.34375
2023-05-22T01:41:57.001Z,76.96484
2023-05-22T01:47:00.398Z,76.70117
2023-05-22T01:52:02.773Z,76.37402
2023-05-22T01:56:59.025Z,76.40625
2023-05-22T02:01:59.092Z,76.57715
2023-05-22T02:06:57.341Z,76.14063
2023-05-22T02:11:57.042Z,76.08789
2023-05-22T02:16:58.009Z,76.29102
2023-05-22T02:21:56.962Z,76.70801
2023-05-22T02:26:56.959Z,77.04492
2023-05-22T02:31:57.379Z,77.12207
2023-05-22T02:36:57.070Z,77.73926
2023-05-22T02:41:57.009Z,78.13574
2023-05-22T02:46:57.255Z,77.87305
2023-05-22T02:51:57.051Z,77.94922
2023-05-22T02:56:56.988Z,78.02148
2023-05-22T03:01:57.014Z,78.27832
2023-05-22T03:06:57.038Z,78.4541
2023-05-22T03:11:57.063Z,78.13281
2023-05-22T03:16:57.086Z,78.0791
2023-05-22T03:21:57.622Z,77.59375
2023-05-22T03:26:57.029Z,77.75977
2023-05-22T03:31:57.894Z,78.21094
2023-05-22T03:36:57.811Z,78.62598
2023-05-22T03:41:57.095Z,79.2959
2023-05-22T03:46:57.100Z,79.34277
2023-05-22T03:51:57.094Z,79.35645
2023-05-22T03:56:57.213Z,79.56738
2023-05-22T04:01:57.981Z,79.67188
2023-05-22T04:06:58.115Z,80.0498
2023-05-22T04:11:57.089Z,80.28906
2023-05-22T04:16:57.253Z,80.30859
2023-05-22T04:21:57.097Z,80.47461
2023-05-22T04:26:59.944Z,80.31055
2023-05-22T04:31:57.322Z,80.49316
2023-05-22T04:36:57.112Z,80.60254
2023-05-22T04:41:58.189Z,80.74023
2023-05-22T04:46:57.321Z,80.58398
2023-05-22T04:51:57.317Z,80.26172
2023-05-22T04:56:57.181Z,79.74121
2023-05-22T05:01:57.236Z,79.14844
2023-05-22T05:06:57.555Z,78.50488
2023-05-22T05:11:58.129Z,78.15234
2023-05-22T05:16:58.687Z,77.28516
2023-05-22T05:21:57.290Z,76.89941
2023-05-22T05:26:57.584Z,76.38379
2023-05-22T05:31:57.224Z,75.71484
2023-05-22T05:36:57.184Z,75.58887
2023-05-22T05:41:57.176Z,75.02832
2023-05-22T05:46:57.864Z,74.89746
2023-05-22T05:51:57.158Z,74.15625
2023-05-22T05:56:57.154Z,73.00977
2023-05-22T06:01:57.119Z,72.47363
2023-05-22T06:06:57.180Z,72.24902
2023-05-22T06:11:57.159Z,71.5752
2023-05-22T06:16:57.346Z,71.18555
2023-05-22T06:21:57.189Z,71.1084
2023-05-22T06:26:57.172Z,71.17383
2023-05-22T06:31:57.308Z,71.17773
2023-05-22T06:36:57.304Z,69.64258
2023-05-22T06:41:57.292Z,69.87598
2023-05-22T06:46:57.342Z,69.68652
2023-05-22T06:51:57.242Z,68.58008
2023-05-22T06:56:57.205Z,68.8252
2023-05-22T07:01:57.222Z,67.99609
2023-05-22T07:06:57.264Z,66.45605
2023-05-22T07:11:57.262Z,64.81641
2023-05-22T07:16:57.277Z,63.50098
2023-05-22T07:21:58.592Z,58.70996
2023-05-22T07:26:57.269Z,52.50781
2023-05-22T07:31:57.376Z,49.72363
2023-05-22T07:36:57.239Z,47.64453
2023-05-22T07:41:58.844Z,47.32617
2023-05-22T07:46:57.380Z,44.18164
2023-05-22T07:51:57.293Z,43.60547
2023-05-22T07:56:57.410Z,43.16895
2023-05-22T08:01:58.380Z,45.24902
2023-05-22T08:06:57.303Z,47.58398
2023-05-22T08:11:57.333Z,47.72266
2023-05-22T08:16:58.910Z,47.06934
2023-05-22T08:21:58.166Z,46.35547
2023-05-22T08:26:58.117Z,47.91992
2023-05-22T08:31:58.181Z,45.87305
2023-05-22T08:36:57.258Z,42.09766
2023-05-22T08:41:57.367Z,40.70703
2023-05-22T08:46:59.598Z,38.09277
2023-05-22T08:51:59.900Z,39.35449
2023-05-22T08:56:57.825Z,37.12207
2023-05-22T09:01:57.925Z,39.39746
2023-05-22T09:06:57.417Z,39.15918
2023-05-22T09:11:58.603Z,39.0498
2023-05-22T09:16:57.520Z,37.93945
2023-05-22T09:22:06.175Z,36.9043
2023-05-22T09:26:57.347Z,38.5625
2023-05-22T09:31:57.675Z,41.07031
2023-05-22T09:36:57.670Z,45.0625
2023-05-22T09:41:57.442Z,46.05176
2023-05-22T09:46:58.303Z,44.03223
2023-05-22T09:51:58.205Z,40.69238
2023-05-22T09:57:00.192Z,37.94531
2023-05-22T10:01:57.636Z,36.21973
2023-05-22T10:06:58.159Z,41.00098
2023-05-22T10:11:58.934Z,41.34668
2023-05-22T10:17:01.982Z,38.00684
2023-05-22T10:21:57.886Z,37.70313
2023-05-22T10:26:58.156Z,35.89941
2023-05-22T10:31:59.550Z,35.11426
2023-05-22T10:37:17.332Z,33.16699
2023-05-22T10:41:57.476Z,33.28516
2023-05-22T10:46:57.482Z,32.59375
2023-05-22T10:51:59.229Z,31.63379
2023-05-22T10:57:07.500Z,32.29004
2023-05-22T11:02:04.041Z,32.59668
2023-05-22T11:07:07.682Z,32.24414
2023-05-22T11:12:08.561Z,31.4043
2023-05-22T11:17:03.611Z,30.89941
2023-05-22T11:22:03.851Z,29.13672
2023-05-22T11:27:09.492Z,29.39551
2023-05-22T11:31:58.220Z,31.64258
2023-05-22T11:37:01.345Z,31.7334
2023-05-22T11:41:57.612Z,30.23828
2023-05-22T11:46:57.632Z,29.75
2023-05-22T11:51:57.558Z,30.38086
2023-05-22T11:56:57.524Z,29.64355
2023-05-22T12:01:57.877Z,29.30273
2023-05-22T12:06:58.119Z,32.97559
2023-05-22T12:11:58.645Z,32.61816
2023-05-22T12:16:59.412Z,36.00195
2023-05-22T12:21:58.297Z,35.58203
2023-05-22T12:26:57.652Z,34.63965
2023-05-22T12:31:57.700Z,33.63477
2023-05-22T12:36:57.626Z,35.18945
2023-05-22T12:41:57.597Z,37.4248
2023-05-22T12:46:57.631Z,33.96777
2023-05-22T12:51:57.639Z,33.00977
2023-05-22T12:56:57.587Z,31.25391
2023-05-22T13:02:01.876Z,31.90918
2023-05-22T13:06:57.668Z,31.84473
2023-05-22T13:11:57.713Z,31.54883
2023-05-22T13:16:57.629Z,31.07227
2023-05-22T13:21:57.622Z,30.58594
2023-05-22T13:26:57.686Z,33.13379
2023-05-22T13:31:57.685Z,35.15039
2023-05-22T13:36:57.738Z,36.1416
2023-05-22T13:41:58.979Z,34.24023
2023-05-22T13:46:57.713Z,33.36426
2023-05-22T13:51:57.686Z,33.58887
2023-05-22T13:56:59.735Z,32.35742
2023-05-22T14:01:57.887Z,32.98828
2023-05-22T14:06:57.721Z,34.54395
2023-05-22T14:11:57.818Z,35.95703
2023-05-22T14:16:57.833Z,37.01758
2023-05-22T14:21:57.737Z,37.05859
2023-05-22T14:26:58.211Z,38.7373
2023-05-22T14:31:59.328Z,39.7168
2023-05-22T14:36:58.340Z,44.32813
2023-05-22T14:41:57.866Z,49.7666
2023-05-22T14:46:57.947Z,52.81348
2023-05-22T14:51:57.756Z,56.1748
2023-05-22T14:56:57.767Z,59.50977
2023-05-22T15:01:57.814Z,60.76563
2023-05-22T15:06:57.742Z,63.74902
2023-05-22T15:11:57.817Z,66.77344
2023-05-22T15:16:57.757Z,65.93359
2023-05-22T15:22:08.885Z,63.94922
2023-05-22T15:26:57.730Z,62.07813
2023-05-22T15:31:57.805Z,60.42871
2023-05-22T15:36:57.814Z,60.2832
2023-05-22T15:42:05.815Z,61.8252
2023-05-22T15:46:58.682Z,62.7041
2023-05-22T15:51:57.849Z,60.5918
2023-05-22T15:56:57.743Z,59.55957
2023-05-22T16:01:57.797Z,57.48242
2023-05-22T16:06:57.750Z,54.50586
2023-05-22T16:11:57.830Z,50.36816
2023-05-22T16:16:57.793Z,47.97168
2023-05-22T16:21:57.800Z,47.89844
2023-05-22T16:26:57.854Z,47.28223
2023-05-22T16:31:57.887Z,45.53125
2023-05-22T16:36:57.816Z,42.87793
2023-05-22T16:41:57.819Z,42.91211
2023-05-22T16:46:57.879Z,43.89063
2023-05-22T16:51:57.906Z,45.3418
2023-05-22T16:56:57.871Z,43.44238
2023-05-22T17:01:57.892Z,44.23438
2023-05-22T17:06:59.036Z,45.38574
2023-05-22T17:11:58.025Z,44.35254
2023-05-22T17:16:58.554Z,44.47266
2023-05-22T17:21:57.840Z,44.39941
2023-05-22T17:26:57.910Z,45.55566
2023-05-22T17:31:57.862Z,45.44629
2023-05-22T17:36:59.231Z,45.43359
2023-05-22T17:41:59.668Z,45.00879
2023-05-22T17:46:57.908Z,45.54102
2023-05-22T17:51:57.887Z,48.25293
2023-05-22T17:56:58.244Z,50.6084
2023-05-22T18:01:58.685Z,51.72852
2023-05-22T18:06:58.002Z,51.74902
2023-05-22T18:11:59.007Z,53.21094
2023-05-22T18:16:58.328Z,54.45313
2023-05-22T18:21:57.997Z,55.94043
2023-05-22T18:32:39.846Z,60.35059
2023-05-22T18:37:39.690Z,61.07031
2023-05-22T18:42:39.727Z,61.85645
2023-05-22T18:47:39.761Z,62.54492
2023-05-22T18:52:39.886Z,63.87207
2023-05-22T18:57:39.738Z,64.45703
2023-05-22T19:02:39.815Z,65.28223
2023-05-22T19:07:39.767Z,66.32031
2023-05-22T19:12:39.781Z,66.9834
2023-05-22T19:17:39.859Z,67.73438
2023-05-22T19:22:39.742Z,68.27734
2023-05-22T19:27:39.848Z,68.77051
2023-05-22T19:32:39.843Z,69.66602
2023-05-22T19:37:39.729Z,69.9541
2023-05-22T19:42:41.173Z,70.19336
2023-05-22T19:47:39.849Z,70.3877
2023-05-22T19:52:39.795Z,70.16016
2023-05-22T19:57:39.792Z,70.51758
2023-05-22T20:02:39.835Z,70.8877
2023-05-22T20:07:39.865Z,71.39746
2023-05-22T20:12:40.117Z,71.84473
2023-05-22T20:17:41.606Z,72.64453
2023-05-22T20:22:39.857Z,73.41406
2023-05-22T20:27:39.986Z,73.8584
2023-05-22T20:32:40.118Z,74.27344
2023-05-22T20:37:41.435Z,75.36426
2023-05-22T20:42:40.869Z,75.35449
2023-05-22T20:47:40.154Z,75.41016
2023-05-22T20:52:40.442Z,75.48828
2023-05-22T20:57:39.863Z,75.28125
2023-05-22T21:02:39.925Z,75.58105
2023-05-22T21:07:39.922Z,75.90332
2023-05-22T21:12:39.822Z,76.64551
2023-05-22T21:17:39.899Z,77.37695
2023-05-22T21:22:39.983Z,77.16016
2023-05-22T21:27:39.865Z,75.9541
2023-05-22T21:32:39.919Z,76.02246
2023-05-22T21:37:40.214Z,76.58594
2023-05-22T21:42:46.669Z,76.66406
2023-05-22T21:47:39.968Z,75.99512
2023-05-22T21:52:39.960Z,75.40332
2023-05-22T21:57:39.891Z,75.19336
2023-05-22T22:02:39.984Z,74.78613
2023-05-22T22:07:39.847Z,75.9502
2023-05-22T22:12:39.986Z,77.22754
2023-05-22T22:17:40.591Z,76.77148
2023-05-22T22:22:39.941Z,76.10938
2023-05-22T22:27:39.980Z,75.79102
2023-05-22T22:32:39.957Z,76.00977
2023-05-22T22:37:40.203Z,76.86133
2023-05-22T22:42:39.942Z,77.01563
2023-05-22T22:47:39.955Z,76.91895
2023-05-22T22:52:40.023Z,76.33496
2023-05-22T22:57:43.040Z,75.38672
2023-05-22T23:02:40.149Z,75.78516
2023-05-22T23:07:39.959Z,75.7627
2023-05-22T23:12:40.014Z,75.51172
2023-05-22T23:17:40.052Z,75.57617
2023-05-22T23:22:39.997Z,75.71094
2023-05-22T23:27:40.172Z,75.72168
2023-05-22T23:32:40.009Z,75.89258
2023-05-22T23:37:40.133Z,76.12305
2023-05-22T23:42:40.116Z,76.34473
2023-05-22T23:47:40.049Z,76.76855
2023-05-22T23:52:40.019Z,76.91113
2023-05-22T23:57:40.005Z,76.86426
